createdAt,value
2022-08-05T00:06:30.732Z,73.51
2022-08-05T00:16:36.592Z,73.11
2022-08-05T00:26:54.629Z,73.04
2022-08-05T00:37:10.848Z,73.03
2022-08-05T00:47:16.359Z,72.58
2022-08-05T00:57:17.937Z,72.71
2022-08-05T01:07:31.666Z,72.94
2022-08-05T01:17:43.963Z,72.79
2022-08-05T01:27:55.398Z,72.85
2022-08-05T01:38:00.680Z,73.45
2022-08-05T01:48:03.882Z,74.29
2022-08-05T01:58:15.776Z,74.12
2022-08-05T02:08:30.654Z,73.24
2022-08-05T02:18:42.835Z,74.88
2022-08-05T02:28:46.314Z,75.96
2022-08-05T02:38:53.116Z,74.98
2022-08-05T02:48:57.000Z,74.62
2022-08-05T02:59:00.357Z,74.93
2022-08-05T03:09:02.196Z,75.14
2022-08-05T03:19:16.967Z,75.60
2022-08-05T03:29:45.166Z,78.02
2022-08-05T03:39:58.680Z,77.00
2022-08-05T03:50:00.962Z,78.41
2022-08-05T04:00:09.175Z,78.11
2022-08-05T04:10:17.525Z,77.84
2022-08-05T04:20:22.126Z,77.88
2022-08-05T04:30:24.761Z,78.09
2022-08-05T04:40:28.027Z,77.31
2022-08-05T04:50:34.407Z,77.22
2022-08-05T05:00:39.868Z,77.18
2022-08-05T05:10:55.792Z,77.73
2022-08-05T05:20:58.489Z,77.86
2022-08-05T05:31:00.141Z,78.73
2022-08-05T05:41:02.034Z,77.76
2022-08-05T05:51:15.289Z,77.97
2022-08-05T06:01:17.514Z,76.83
2022-08-05T06:11:24.968Z,76.69
2022-08-05T06:21:35.865Z,75.71
2022-08-05T06:31:38.632Z,71.29
2022-08-05T06:41:43.520Z,76.24
2022-08-05T06:51:47.263Z,75.40
2022-08-05T07:01:48.718Z,77.02
2022-08-05T07:11:54.487Z,75.62
2022-08-05T07:22:00.510Z,76.34
2022-08-05T07:32:03.979Z,76.71
2022-08-05T07:42:13.588Z,76.46
2022-08-05T07:52:16.690Z,78.78
2022-08-05T08:02:26.637Z,77.24
2022-08-05T08:12:49.331Z,77.19
2022-08-05T08:22:55.999Z,77.37
2022-08-05T08:32:57.431Z,76.84
2022-08-05T08:45:21.359Z,76.00
2022-08-05T08:53:24.636Z,76.35
2022-08-05T09:03:28.787Z,76.55
2022-08-05T09:14:09.610Z,76.26
2022-08-05T09:24:08.779Z,76.67
2022-08-05T09:34:13.029Z,77.96
2022-08-05T09:44:33.108Z,78.11
2022-08-05T09:54:34.529Z,78.16
2022-08-05T10:04:38.303Z,79.25
2022-08-05T10:14:40.801Z,79.07
2022-08-05T10:24:46.480Z,80.94
2022-08-05T10:34:52.555Z,79.97
2022-08-05T10:44:56.259Z,80.02
2022-08-05T10:55:07.062Z,79.47
2022-08-05T11:05:10.235Z,79.78
2022-08-05T11:16:00.100Z,79.65
2022-08-05T11:26:28.996Z,78.54
2022-08-05T11:36:43.915Z,79.10
2022-08-05T11:47:09.983Z,79.65
2022-08-05T11:57:25.352Z,79.18
2022-08-05T12:08:04.394Z,79.12
2022-08-05T12:18:03.708Z,78.25
2022-08-05T12:28:05.895Z,78.00
2022-08-05T12:38:07.446Z,76.08
2022-08-05T12:48:26.959Z,73.71
2022-08-05T12:58:51.004Z,71.92
2022-08-05T13:08:54.984Z,73.21
2022-08-05T13:18:58.390Z,74.59
2022-08-05T13:29:00.698Z,73.56
2022-08-05T13:39:08.404Z,73.21
2022-08-05T13:49:25.843Z,73.38
2022-08-05T13:59:30.880Z,71.91
2022-08-05T14:09:34.185Z,71.29
2022-08-05T14:19:56.147Z,70.76
2022-08-05T14:29:59.165Z,70.01
2022-08-05T14:40:00.722Z,70.20
2022-08-05T14:50:15.695Z,71.26
2022-08-05T15:00:20.454Z,72.71
2022-08-05T15:10:30.056Z,73.24
2022-08-05T15:20:31.605Z,71.13
2022-08-05T15:30:33.928Z,68.03
2022-08-05T15:40:58.697Z,67.06
2022-08-05T15:51:03.402Z,67.66
2022-08-05T16:01:16.891Z,66.74
2022-08-05T16:11:21.098Z,65.22
2022-08-05T16:22:00.734Z,64.91
2022-08-05T16:32:02.171Z,62.80
2022-08-05T16:42:27.732Z,65.01
2022-08-05T16:52:33.584Z,64.52
2022-08-05T17:02:35.491Z,63.17
2022-08-05T17:12:51.000Z,62.44
2022-08-05T17:22:55.481Z,62.96
2022-08-05T17:32:57.351Z,62.23
2022-08-05T17:42:58.769Z,61.90
2022-08-05T17:53:05.147Z,61.44
2022-08-05T18:03:06.632Z,62.09
2022-08-05T18:13:12.249Z,62.30
2022-08-05T18:23:14.336Z,63.14
2022-08-05T18:33:16.191Z,63.92
2022-08-05T18:43:23.853Z,65.34
2022-08-05T18:53:25.325Z,66.27
2022-08-05T19:03:53.506Z,67.58
2022-08-05T19:13:49.255Z,68.17
2022-08-05T19:24:08.981Z,68.42
2022-08-05T19:34:14.244Z,69.97
2022-08-05T19:44:20.158Z,71.72
2022-08-05T19:54:25.579Z,75.86
2022-08-05T20:04:32.770Z,71.47
2022-08-05T20:14:35.005Z,72.17
2022-08-05T20:24:36.376Z,74.77
2022-08-05T20:34:39.339Z,72.40
2022-08-05T20:44:42.768Z,72.63
2022-08-05T20:55:15.891Z,72.88
2022-08-05T21:05:07.259Z,73.46
2022-08-05T21:15:10.926Z,73.47
2022-08-05T21:25:12.295Z,76.67
2022-08-05T21:35:18.171Z,73.88
2022-08-05T21:45:56.597Z,74.27
2022-08-05T21:56:05.287Z,74.53
2022-08-05T22:06:11.658Z,74.88
2022-08-05T22:16:32.177Z,78.03
2022-08-05T22:26:34.383Z,75.01
2022-08-05T22:36:36.847Z,75.45
2022-08-05T22:46:40.902Z,75.61
2022-08-05T22:56:42.808Z,76.05
2022-08-05T23:06:44.225Z,76.13
2022-08-05T23:16:46.881Z,76.22
2022-08-05T23:26:53.584Z,76.43
2022-08-05T23:36:55.032Z,76.86
2022-08-05T23:46:56.689Z,76.88
2022-08-05T23:57:03.856Z,77.07
